sensor_id;sensor_type;location;lat;lon;timestamp;P1;durP1;ratioP1;P2;durP2;ratioP2
2656;SDS011;1338;48.176;11.792;2024-03-25T00:00:50;3.13;;;2.87;;
2656;SDS011;1338;48.176;11.792;2024-03-25T00:03:18;3.33;;;2.93;;
2656;SDS011;1338;48.176;11.792;2024-03-25T00:05:46;3.37;;;3.07;;
2656;SDS011;1338;48.176;11.792;2024-03-25T00:08:14;2.80;;;2.60;;
2656;SDS011;1338;48.176;11.792;2024-03-25T00:10:40;2.90;;;2.60;;
2656;SDS011;1338;48.176;11.792;2024-03-25T00:13:08;2.90;;;2.67;;
2656;SDS011;1338;48.176;11.792;2024-03-25T00:15:35;2.77;;;2.57;;
2656;SDS011;1338;48.176;11.792;2024-03-25T00:18:04;2.87;;;2.67;;
2656;SDS011;1338;48.176;11.792;2024-03-25T00:20:30;3.03;;;2.70;;
2656;SDS011;1338;48.176;11.792;2024-03-25T00:22:59;3.97;;;3.13;;
2656;SDS011;1338;48.176;11.792;2024-03-25T00:25:26;3.50;;;2.57;;
2656;SDS011;1338;48.176;11.792;2024-03-25T00:27:53;3.37;;;3.07;;
2656;SDS011;1338;48.176;11.792;2024-03-25T00:30:20;3.30;;;3.00;;
2656;SDS011;1338;48.176;11.792;2024-03-25T00:32:47;3.80;;;2.90;;
2656;SDS011;1338;48.176;11.792;2024-03-25T00:35:14;2.80;;;2.60;;
2656;SDS011;1338;48.176;11.792;2024-03-25T00:37:41;3.63;;;2.93;;
2656;SDS011;1338;48.176;11.792;2024-03-25T00:40:10;2.67;;;2.47;;
2656;SDS011;1338;48.176;11.792;2024-03-25T00:42:38;2.67;;;2.47;;
2656;SDS011;1338;48.176;11.792;2024-03-25T00:45:05;3.57;;;3.23;;
2656;SDS011;1338;48.176;11.792;2024-03-25T00:47:34;2.80;;;2.60;;
2656;SDS011;1338;48.176;11.792;2024-03-25T00:50:01;4.40;;;3.57;;
2656;SDS011;1338;48.176;11.792;2024-03-25T00:52:28;4.10;;;3.17;;
2656;SDS011;1338;48.176;11.792;2024-03-25T00:54:55;3.57;;;3.27;;
2656;SDS011;1338;48.176;11.792;2024-03-25T00:57:24;3.70;;;2.87;;
2656;SDS011;1338;48.176;11.792;2024-03-25T00:59:50;3.37;;;2.70;;
2656;SDS011;1338;48.176;11.792;2024-03-25T01:02:18;3.60;;;3.30;;
2656;SDS011;1338;48.176;11.792;2024-03-25T01:04:44;3.00;;;2.60;;
2656;SDS011;1338;48.176;11.792;2024-03-25T01:07:12;3.97;;;2.90;;
2656;SDS011;1338;48.176;11.792;2024-03-25T01:09:39;4.20;;;3.10;;
2656;SDS011;1338;48.176;11.792;2024-03-25T01:12:06;2.60;;;2.40;;
2656;SDS011;1338;48.176;11.792;2024-03-25T01:14:34;3.33;;;3.03;;
2656;SDS011;1338;48.176;11.792;2024-03-25T01:17:02;3.07;;;2.87;;
2656;SDS011;1338;48.176;11.792;2024-03-25T01:19:29;2.87;;;2.60;;
2656;SDS011;1338;48.176;11.792;2024-03-25T01:21:56;2.67;;;2.40;;
2656;SDS011;1338;48.176;11.792;2024-03-25T01:24:23;3.13;;;2.90;;
2656;SDS011;1338;48.176;11.792;2024-03-25T01:26:50;3.37;;;3.07;;
2656;SDS011;1338;48.176;11.792;2024-03-25T01:29:17;2.80;;;2.60;;
2656;SDS011;1338;48.176;11.792;2024-03-25T01:31:46;3.00;;;2.60;;
2656;SDS011;1338;48.176;11.792;2024-03-25T01:34:13;2.80;;;2.60;;
2656;SDS011;1338;48.176;11.792;2024-03-25T01:36:41;3.10;;;2.60;;
2656;SDS011;1338;48.176;11.792;2024-03-25T01:39:08;3.30;;;3.00;;
2656;SDS011;1338;48.176;11.792;2024-03-25T01:41:35;2.87;;;2.67;;
2656;SDS011;1338;48.176;11.792;2024-03-25T01:44:02;3.93;;;3.20;;
2656;SDS011;1338;48.176;11.792;2024-03-25T01:46:30;3.10;;;2.90;;
2656;SDS011;1338;48.176;11.792;2024-03-25T01:48:58;3.07;;;2.87;;
2656;SDS011;1338;48.176;11.792;2024-03-25T01:51:25;3.30;;;2.70;;
2656;SDS011;1338;48.176;11.792;2024-03-25T01:53:52;4.40;;;2.70;;
2656;SDS011;1338;48.176;11.792;2024-03-25T01:56:21;2.47;;;2.27;;
2656;SDS011;1338;48.176;11.792;2024-03-25T01:58:50;3.70;;;3.27;;
2656;SDS011;1338;48.176;11.792;2024-03-25T02:01:17;4.03;;;3.63;;
2656;SDS011;1338;48.176;11.792;2024-03-25T02:03:45;3.23;;;2.93;;
2656;SDS011;1338;48.176;11.792;2024-03-25T02:06:15;4.17;;;3.00;;
2656;SDS011;1338;48.176;11.792;2024-03-25T02:08:43;4.33;;;3.17;;
2656;SDS011;1338;48.176;11.792;2024-03-25T02:11:11;3.07;;;2.87;;
2656;SDS011;1338;48.176;11.792;2024-03-25T02:13:38;2.80;;;2.60;;
2656;SDS011;1338;48.176;11.792;2024-03-25T02:16:06;3.50;;;3.20;;
2656;SDS011;1338;48.176;11.792;2024-03-25T02:18:33;2.93;;;2.73;;
2656;SDS011;1338;48.176;11.792;2024-03-25T02:21:01;2.70;;;2.50;;
2656;SDS011;1338;48.176;11.792;2024-03-25T02:23:30;2.70;;;2.50;;
2656;SDS011;1338;48.176;11.792;2024-03-25T02:25:59;3.67;;;3.37;;
2656;SDS011;1338;48.176;11.792;2024-03-25T02:28:26;3.00;;;2.80;;
2656;SDS011;1338;48.176;11.792;2024-03-25T02:30:53;4.03;;;3.63;;
2656;SDS011;1338;48.176;11.792;2024-03-25T02:33:20;3.33;;;3.03;;
2656;SDS011;1338;48.176;11.792;2024-03-25T02:35:47;4.13;;;3.33;;
2656;SDS011;1338;48.176;11.792;2024-03-25T02:38:14;3.10;;;2.80;;
2656;SDS011;1338;48.176;11.792;2024-03-25T02:40:44;3.00;;;2.70;;
2656;SDS011;1338;48.176;11.792;2024-03-25T02:43:12;4.43;;;3.10;;
2656;SDS011;1338;48.176;11.792;2024-03-25T02:45:40;3.50;;;3.20;;
2656;SDS011;1338;48.176;11.792;2024-03-25T02:48:07;3.30;;;3.10;;
2656;SDS011;1338;48.176;11.792;2024-03-25T02:50:34;3.17;;;2.87;;
2656;SDS011;1338;48.176;11.792;2024-03-25T02:53:01;3.70;;;2.90;;
2656;SDS011;1338;48.176;11.792;2024-03-25T02:55:29;3.93;;;3.63;;
2656;SDS011;1338;48.176;11.792;2024-03-25T02:57:55;4.30;;;2.93;;
2656;SDS011;1338;48.176;11.792;2024-03-25T03:00:24;3.57;;;3.27;;
2656;SDS011;1338;48.176;11.792;2024-03-25T03:02:50;5.43;;;3.47;;
2656;SDS011;1338;48.176;11.792;2024-03-25T03:05:19;4.07;;;3.20;;
2656;SDS011;1338;48.176;11.792;2024-03-25T03:07:45;3.77;;;3.47;;
2656;SDS011;1338;48.176;11.792;2024-03-25T03:10:13;3.00;;;2.70;;
2656;SDS011;1338;48.176;11.792;2024-03-25T03:12:41;3.93;;;3.40;;
2656;SDS011;1338;48.176;11.792;2024-03-25T03:15:09;3.87;;;3.57;;
2656;SDS011;1338;48.176;11.792;2024-03-25T03:17:36;2.93;;;2.73;;
2656;SDS011;1338;48.176;11.792;2024-03-25T03:20:05;3.40;;;3.10;;
2656;SDS011;1338;48.176;11.792;2024-03-25T03:22:32;3.60;;;2.87;;
2656;SDS011;1338;48.176;11.792;2024-03-25T03:25:00;4.10;;;3.27;;
2656;SDS011;1338;48.176;11.792;2024-03-25T03:27:26;5.13;;;3.53;;
2656;SDS011;1338;48.176;11.792;2024-03-25T03:29:54;5.03;;;3.40;;
2656;SDS011;1338;48.176;11.792;2024-03-25T03:32:20;3.23;;;2.93;;
2656;SDS011;1338;48.176;11.792;2024-03-25T03:34:49;3.73;;;3.20;;
2656;SDS011;1338;48.176;11.792;2024-03-25T03:37:16;3.23;;;2.90;;
2656;SDS011;1338;48.176;11.792;2024-03-25T03:39:43;3.73;;;3.30;;
2656;SDS011;1338;48.176;11.792;2024-03-25T03:42:09;4.07;;;3.67;;
2656;SDS011;1338;48.176;11.792;2024-03-25T03:44:39;3.30;;;3.00;;
2656;SDS011;1338;48.176;11.792;2024-03-25T03:47:06;3.53;;;3.10;;
2656;SDS011;1338;48.176;11.792;2024-03-25T03:49:33;4.17;;;3.03;;
2656;SDS011;1338;48.176;11.792;2024-03-25T03:52:01;4.60;;;3.60;;
2656;SDS011;1338;48.176;11.792;2024-03-25T03:54:29;4.10;;;3.70;;
2656;SDS011;1338;48.176;11.792;2024-03-25T03:56:55;3.80;;;3.50;;
2656;SDS011;1338;48.176;11.792;2024-03-25T03:59:23;3.40;;;3.10;;
2656;SDS011;1338;48.176;11.792;2024-03-25T04:01:49;4.57;;;3.30;;
2656;SDS011;1338;48.176;11.792;2024-03-25T04:04:17;4.37;;;3.80;;
2656;SDS011;1338;48.176;11.792;2024-03-25T04:06:43;4.13;;;3.20;;
2656;SDS011;1338;48.176;11.792;2024-03-25T04:09:13;3.40;;;2.97;;
2656;SDS011;1338;48.176;11.792;2024-03-25T04:11:39;4.73;;;3.30;;
2656;SDS011;1338;48.176;11.792;2024-03-25T04:14:07;3.73;;;3.30;;
2656;SDS011;1338;48.176;11.792;2024-03-25T04:16:33;3.53;;;3.10;;
2656;SDS011;1338;48.176;11.792;2024-03-25T04:19:01;3.70;;;2.87;;
2656;SDS011;1338;48.176;11.792;2024-03-25T04:21:27;3.23;;;2.93;;
2656;SDS011;1338;48.176;11.792;2024-03-25T04:23:55;3.60;;;3.30;;
2656;SDS011;1338;48.176;11.792;2024-03-25T04:26:23;4.13;;;3.73;;
2656;SDS011;1338;48.176;11.792;2024-03-25T04:28:51;3.50;;;3.20;;
2656;SDS011;1338;48.176;11.792;2024-03-25T04:31:18;3.90;;;2.90;;
2656;SDS011;1338;48.176;11.792;2024-03-25T04:33:45;5.80;;;3.40;;
2656;SDS011;1338;48.176;11.792;2024-03-25T04:36:12;4.03;;;3.60;;
2656;SDS011;1338;48.176;11.792;2024-03-25T04:38:39;4.07;;;3.50;;
2656;SDS011;1338;48.176;11.792;2024-03-25T04:41:06;5.63;;;3.07;;
2656;SDS011;1338;48.176;11.792;2024-03-25T04:43:35;4.20;;;3.10;;
2656;SDS011;1338;48.176;11.792;2024-03-25T04:46:01;4.10;;;3.80;;
2656;SDS011;1338;48.176;11.792;2024-03-25T04:48:28;3.57;;;3.03;;
2656;SDS011;1338;48.176;11.792;2024-03-25T04:50:56;3.63;;;3.33;;
2656;SDS011;1338;48.176;11.792;2024-03-25T04:53:23;3.97;;;3.60;;
2656;SDS011;1338;48.176;11.792;2024-03-25T04:55:50;5.13;;;3.20;;
2656;SDS011;1338;48.176;11.792;2024-03-25T04:58:17;4.00;;;2.83;;
2656;SDS011;1338;48.176;11.792;2024-03-25T05:00:45;3.80;;;2.80;;
2656;SDS011;1338;48.176;11.792;2024-03-25T05:03:12;3.80;;;3.33;;
2656;SDS011;1338;48.176;11.792;2024-03-25T05:05:39;4.70;;;3.37;;
2656;SDS011;1338;48.176;11.792;2024-03-25T05:08:06;3.20;;;2.90;;
2656;SDS011;1338;48.176;11.792;2024-03-25T05:10:33;5.50;;;3.27;;
2656;SDS011;1338;48.176;11.792;2024-03-25T05:13:00;2.93;;;2.73;;
2656;SDS011;1338;48.176;11.792;2024-03-25T05:15:27;3.40;;;3.10;;
2656;SDS011;1338;48.176;11.792;2024-03-25T05:17:55;2.90;;;2.60;;
2656;SDS011;1338;48.176;11.792;2024-03-25T05:20:22;4.43;;;3.40;;
2656;SDS011;1338;48.176;11.792;2024-03-25T05:22:48;3.77;;;3.40;;
2656;SDS011;1338;48.176;11.792;2024-03-25T05:25:15;3.93;;;3.53;;
2656;SDS011;1338;48.176;11.792;2024-03-25T05:27:41;5.77;;;3.40;;
2656;SDS011;1338;48.176;11.792;2024-03-25T05:30:08;3.73;;;3.30;;
2656;SDS011;1338;48.176;11.792;2024-03-25T05:32:35;4.03;;;3.63;;
2656;SDS011;1338;48.176;11.792;2024-03-25T05:35:05;4.13;;;3.70;;
2656;SDS011;1338;48.176;11.792;2024-03-25T05:37:32;5.80;;;3.40;;
2656;SDS011;1338;48.176;11.792;2024-03-25T05:39:59;4.27;;;3.87;;
2656;SDS011;1338;48.176;11.792;2024-03-25T05:42:26;4.00;;;3.60;;
2656;SDS011;1338;48.176;11.792;2024-03-25T05:44:52;3.53;;;3.23;;
2656;SDS011;1338;48.176;11.792;2024-03-25T05:47:19;3.80;;;3.50;;
2656;SDS011;1338;48.176;11.792;2024-03-25T05:49:49;4.13;;;3.73;;
2656;SDS011;1338;48.176;11.792;2024-03-25T05:52:18;3.30;;;3.00;;
2656;SDS011;1338;48.176;11.792;2024-03-25T05:54:44;4.57;;;4.17;;
2656;SDS011;1338;48.176;11.792;2024-03-25T05:57:11;4.37;;;3.77;;
2656;SDS011;1338;48.176;11.792;2024-03-25T05:59:38;5.27;;;3.40;;
2656;SDS011;1338;48.176;11.792;2024-03-25T06:02:04;3.60;;;3.30;;
2656;SDS011;1338;48.176;11.792;2024-03-25T06:04:31;5.00;;;3.40;;
2656;SDS011;1338;48.176;11.792;2024-03-25T06:06:58;4.53;;;3.70;;
2656;SDS011;1338;48.176;11.792;2024-03-25T06:09:26;4.30;;;3.90;;
2656;SDS011;1338;48.176;11.792;2024-03-25T06:11:53;3.87;;;3.30;;
2656;SDS011;1338;48.176;11.792;2024-03-25T06:14:20;5.20;;;3.23;;
2656;SDS011;1338;48.176;11.792;2024-03-25T06:16:46;4.03;;;3.57;;
2656;SDS011;1338;48.176;11.792;2024-03-25T06:19:13;6.00;;;3.70;;
2656;SDS011;1338;48.176;11.792;2024-03-25T06:21:39;3.30;;;3.00;;
2656;SDS011;1338;48.176;11.792;2024-03-25T06:24:06;3.70;;;3.40;;
2656;SDS011;1338;48.176;11.792;2024-03-25T06:26:34;7.13;;;3.60;;
2656;SDS011;1338;48.176;11.792;2024-03-25T06:29:01;4.30;;;3.30;;
2656;SDS011;1338;48.176;11.792;2024-03-25T06:31:28;4.30;;;3.83;;
2656;SDS011;1338;48.176;11.792;2024-03-25T06:34:28;5.23;;;2.77;;
2656;SDS011;1338;48.176;11.792;2024-03-25T06:36:55;3.20;;;2.90;;
2656;SDS011;1338;48.176;11.792;2024-03-25T06:39:21;4.37;;;3.60;;
2656;SDS011;1338;48.176;11.792;2024-03-25T06:41:49;7.40;;;3.13;;
2656;SDS011;1338;48.176;11.792;2024-03-25T06:44:16;3.33;;;3.03;;
2656;SDS011;1338;48.176;11.792;2024-03-25T06:46:42;4.87;;;4.37;;
2656;SDS011;1338;48.176;11.792;2024-03-25T06:49:09;4.00;;;3.20;;
2656;SDS011;1338;48.176;11.792;2024-03-25T06:51:35;4.13;;;3.73;;
2656;SDS011;1338;48.176;11.792;2024-03-25T06:54:02;3.90;;;3.10;;
2656;SDS011;1338;48.176;11.792;2024-03-25T06:56:29;4.67;;;3.70;;
2656;SDS011;1338;48.176;11.792;2024-03-25T06:58:57;4.27;;;3.87;;
2656;SDS011;1338;48.176;11.792;2024-03-25T07:01:24;5.13;;;3.67;;
2656;SDS011;1338;48.176;11.792;2024-03-25T07:03:51;5.90;;;4.10;;
2656;SDS011;1338;48.176;11.792;2024-03-25T07:06:17;4.90;;;3.43;;
2656;SDS011;1338;48.176;11.792;2024-03-25T07:08:44;4.97;;;3.63;;
2656;SDS011;1338;48.176;11.792;2024-03-25T07:11:11;4.03;;;3.63;;
2656;SDS011;1338;48.176;11.792;2024-03-25T07:13:37;4.03;;;3.63;;
2656;SDS011;1338;48.176;11.792;2024-03-25T07:16:06;4.10;;;3.67;;
2656;SDS011;1338;48.176;11.792;2024-03-25T07:18:33;6.23;;;4.40;;
2656;SDS011;1338;48.176;11.792;2024-03-25T07:21:00;4.40;;;3.77;;
2656;SDS011;1338;48.176;11.792;2024-03-25T07:23:26;4.80;;;4.00;;
2656;SDS011;1338;48.176;11.792;2024-03-25T07:25:53;5.03;;;3.73;;
2656;SDS011;1338;48.176;11.792;2024-03-25T07:28:19;6.17;;;4.33;;
2656;SDS011;1338;48.176;11.792;2024-03-25T07:30:46;5.43;;;4.30;;
2656;SDS011;1338;48.176;11.792;2024-03-25T07:33:14;3.50;;;3.20;;
2656;SDS011;1338;48.176;11.792;2024-03-25T07:35:41;5.00;;;3.83;;
2656;SDS011;1338;48.176;11.792;2024-03-25T07:38:07;6.23;;;4.60;;
2656;SDS011;1338;48.176;11.792;2024-03-25T07:40:34;4.17;;;3.63;;
2656;SDS011;1338;48.176;11.792;2024-03-25T07:43:01;6.33;;;5.50;;
2656;SDS011;1338;48.176;11.792;2024-03-25T07:45:27;4.20;;;3.53;;
2656;SDS011;1338;48.176;11.792;2024-03-25T07:47:54;4.70;;;4.20;;
2656;SDS011;1338;48.176;11.792;2024-03-25T07:50:24;4.43;;;3.80;;
2656;SDS011;1338;48.176;11.792;2024-03-25T07:52:51;4.53;;;3.80;;
2656;SDS011;1338;48.176;11.792;2024-03-25T07:55:17;4.10;;;3.70;;
2656;SDS011;1338;48.176;11.792;2024-03-25T07:57:44;4.80;;;4.13;;
2656;SDS011;1338;48.176;11.792;2024-03-25T08:00:11;5.33;;;4.23;;
2656;SDS011;1338;48.176;11.792;2024-03-25T08:02:39;4.57;;;4.07;;
2656;SDS011;1338;48.176;11.792;2024-03-25T08:05:06;5.13;;;4.00;;
2656;SDS011;1338;48.176;11.792;2024-03-25T08:07:34;5.87;;;4.70;;
2656;SDS011;1338;48.176;11.792;2024-03-25T08:10:01;4.90;;;4.40;;
2656;SDS011;1338;48.176;11.792;2024-03-25T08:12:28;4.67;;;3.70;;
2656;SDS011;1338;48.176;11.792;2024-03-25T08:14:54;4.97;;;4.47;;
2656;SDS011;1338;48.176;11.792;2024-03-25T08:17:21;5.10;;;4.10;;
2656;SDS011;1338;48.176;11.792;2024-03-25T08:19:48;4.80;;;4.17;;
2656;SDS011;1338;48.176;11.792;2024-03-25T08:22:15;6.97;;;4.23;;
2656;SDS011;1338;48.176;11.792;2024-03-25T08:24:43;8.37;;;5.33;;
2656;SDS011;1338;48.176;11.792;2024-03-25T08:27:09;5.13;;;4.20;;
2656;SDS011;1338;48.176;11.792;2024-03-25T08:29:36;6.23;;;3.97;;
2656;SDS011;1338;48.176;11.792;2024-03-25T08:32:03;6.47;;;4.17;;
2656;SDS011;1338;48.176;11.792;2024-03-25T08:34:31;5.10;;;4.23;;
2656;SDS011;1338;48.176;11.792;2024-03-25T08:36:57;4.63;;;4.17;;
2656;SDS011;1338;48.176;11.792;2024-03-25T08:39:24;7.43;;;4.57;;
2656;SDS011;1338;48.176;11.792;2024-03-25T08:41:52;4.67;;;4.07;;
2656;SDS011;1338;48.176;11.792;2024-03-25T08:44:19;5.00;;;4.60;;
2656;SDS011;1338;48.176;11.792;2024-03-25T08:46:48;5.63;;;3.93;;
2656;SDS011;1338;48.176;11.792;2024-03-25T08:49:15;4.27;;;3.87;;
2656;SDS011;1338;48.176;11.792;2024-03-25T08:51:41;4.80;;;4.10;;
2656;SDS011;1338;48.176;11.792;2024-03-25T08:54:08;4.77;;;3.57;;
2656;SDS011;1338;48.176;11.792;2024-03-25T08:56:35;5.13;;;4.57;;
2656;SDS011;1338;48.176;11.792;2024-03-25T08:59:03;5.37;;;4.00;;
2656;SDS011;1338;48.176;11.792;2024-03-25T09:01:30;6.87;;;4.50;;
2656;SDS011;1338;48.176;11.792;2024-03-25T09:03:56;4.40;;;4.00;;
2656;SDS011;1338;48.176;11.792;2024-03-25T09:06:23;4.07;;;3.73;;
2656;SDS011;1338;48.176;11.792;2024-03-25T09:08:50;5.47;;;3.67;;
2656;SDS011;1338;48.176;11.792;2024-03-25T09:11:35;4.73;;;4.00;;
2656;SDS011;1338;48.176;11.792;2024-03-25T09:14:01;5.33;;;4.60;;
2656;SDS011;1338;48.176;11.792;2024-03-25T09:16:30;4.13;;;3.73;;
2656;SDS011;1338;48.176;11.792;2024-03-25T09:18:56;5.53;;;4.17;;
2656;SDS011;1338;48.176;11.792;2024-03-25T09:21:23;4.63;;;4.13;;
2656;SDS011;1338;48.176;11.792;2024-03-25T09:23:50;5.60;;;4.83;;
2656;SDS011;1338;48.176;11.792;2024-03-25T09:26:17;4.40;;;4.00;;
2656;SDS011;1338;48.176;11.792;2024-03-25T09:28:43;5.23;;;3.60;;
2656;SDS011;1338;48.176;11.792;2024-03-25T09:31:12;4.37;;;3.93;;
2656;SDS011;1338;48.176;11.792;2024-03-25T09:33:39;5.73;;;5.10;;
2656;SDS011;1338;48.176;11.792;2024-03-25T09:36:05;4.90;;;4.37;;
2656;SDS011;1338;48.176;11.792;2024-03-25T09:38:32;4.40;;;4.00;;
2656;SDS011;1338;48.176;11.792;2024-03-25T09:40:59;5.50;;;3.80;;
2656;SDS011;1338;48.176;11.792;2024-03-25T09:43:27;4.67;;;4.13;;
2656;SDS011;1338;48.176;11.792;2024-03-25T09:45:58;4.70;;;4.30;;
2656;SDS011;1338;48.176;11.792;2024-03-25T09:48:28;4.23;;;3.50;;
2656;SDS011;1338;48.176;11.792;2024-03-25T09:50:55;7.83;;;3.93;;
2656;SDS011;1338;48.176;11.792;2024-03-25T09:53:22;5.10;;;4.37;;
2656;SDS011;1338;48.176;11.792;2024-03-25T09:55:49;5.00;;;4.20;;
2656;SDS011;1338;48.176;11.792;2024-03-25T09:58:15;3.53;;;3.23;;
2656;SDS011;1338;48.176;11.792;2024-03-25T10:00:44;4.90;;;4.00;;
2656;SDS011;1338;48.176;11.792;2024-03-25T10:03:11;4.67;;;4.27;;
2656;SDS011;1338;48.176;11.792;2024-03-25T10:05:39;4.80;;;3.60;;
2656;SDS011;1338;48.176;11.792;2024-03-25T10:08:05;4.37;;;3.63;;
2656;SDS011;1338;48.176;11.792;2024-03-25T10:10:33;4.10;;;3.53;;
2656;SDS011;1338;48.176;11.792;2024-03-25T10:13:00;4.30;;;3.57;;
2656;SDS011;1338;48.176;11.792;2024-03-25T10:15:27;8.93;;;3.43;;
2656;SDS011;1338;48.176;11.792;2024-03-25T10:17:55;6.73;;;4.20;;
2656;SDS011;1338;48.176;11.792;2024-03-25T10:20:22;3.83;;;3.27;;
2656;SDS011;1338;48.176;11.792;2024-03-25T10:22:50;5.43;;;2.90;;
2656;SDS011;1338;48.176;11.792;2024-03-25T10:25:22;3.77;;;3.23;;
2656;SDS011;1338;48.176;11.792;2024-03-25T10:27:54;5.73;;;3.73;;
2656;SDS011;1338;48.176;11.792;2024-03-25T10:30:22;3.90;;;3.60;;
2656;SDS011;1338;48.176;11.792;2024-03-25T10:33:00;6.03;;;3.80;;
2656;SDS011;1338;48.176;11.792;2024-03-25T10:35:28;4.10;;;3.47;;
2656;SDS011;1338;48.176;11.792;2024-03-25T10:37:58;3.47;;;3.17;;
2656;SDS011;1338;48.176;11.792;2024-03-25T10:40:26;3.23;;;3.03;;
2656;SDS011;1338;48.176;11.792;2024-03-25T10:42:56;3.37;;;3.07;;
2656;SDS011;1338;48.176;11.792;2024-03-25T10:45:28;3.80;;;3.30;;
2656;SDS011;1338;48.176;11.792;2024-03-25T10:47:57;4.20;;;3.30;;
2656;SDS011;1338;48.176;11.792;2024-03-25T10:50:26;2.80;;;2.60;;
2656;SDS011;1338;48.176;11.792;2024-03-25T10:52:55;3.30;;;3.00;;
2656;SDS011;1338;48.176;11.792;2024-03-25T10:55:25;3.93;;;3.30;;
2656;SDS011;1338;48.176;11.792;2024-03-25T10:57:53;5.07;;;3.40;;
2656;SDS011;1338;48.176;11.792;2024-03-25T11:00:22;3.60;;;2.80;;
2656;SDS011;1338;48.176;11.792;2024-03-25T11:02:49;2.97;;;2.60;;
2656;SDS011;1338;48.176;11.792;2024-03-25T11:05:18;4.83;;;3.40;;
2656;SDS011;1338;48.176;11.792;2024-03-25T11:07:46;3.27;;;2.60;;
2656;SDS011;1338;48.176;11.792;2024-03-25T11:10:14;4.30;;;2.63;;
2656;SDS011;1338;48.176;11.792;2024-03-25T11:12:42;3.40;;;3.10;;
2656;SDS011;1338;48.176;11.792;2024-03-25T11:15:09;3.00;;;2.80;;
2656;SDS011;1338;48.176;11.792;2024-03-25T11:17:36;3.20;;;2.90;;
2656;SDS011;1338;48.176;11.792;2024-03-25T11:20:14;3.33;;;3.03;;
2656;SDS011;1338;48.176;11.792;2024-03-25T11:22:48;2.80;;;2.60;;
2656;SDS011;1338;48.176;11.792;2024-03-25T11:25:17;3.10;;;2.90;;
2656;SDS011;1338;48.176;11.792;2024-03-25T11:27:47;3.23;;;2.63;;
2656;SDS011;1338;48.176;11.792;2024-03-25T11:30:14;3.17;;;2.87;;
2656;SDS011;1338;48.176;11.792;2024-03-25T11:32:43;3.03;;;2.70;;
2656;SDS011;1338;48.176;11.792;2024-03-25T11:35:10;3.73;;;2.50;;
2656;SDS011;1338;48.176;11.792;2024-03-25T11:37:40;2.57;;;2.37;;
2656;SDS011;1338;48.176;11.792;2024-03-25T11:40:08;3.50;;;2.43;;
2656;SDS011;1338;48.176;11.792;2024-03-25T11:42:37;3.33;;;3.03;;
2656;SDS011;1338;48.176;11.792;2024-03-25T11:45:05;3.20;;;2.90;;
2656;SDS011;1338;48.176;11.792;2024-03-25T11:47:32;3.70;;;3.17;;
2656;SDS011;1338;48.176;11.792;2024-03-25T11:50:00;4.00;;;3.17;;
2656;SDS011;1338;48.176;11.792;2024-03-25T11:52:33;3.40;;;2.70;;
2656;SDS011;1338;48.176;11.792;2024-03-25T11:55:00;3.10;;;2.80;;
2656;SDS011;1338;48.176;11.792;2024-03-25T11:57:27;2.63;;;2.43;;
2656;SDS011;1338;48.176;11.792;2024-03-25T11:59:57;3.00;;;2.57;;
2656;SDS011;1338;48.176;11.792;2024-03-25T12:02:24;3.67;;;2.90;;
2656;SDS011;1338;48.176;11.792;2024-03-25T12:04:51;2.70;;;2.50;;
2656;SDS011;1338;48.176;11.792;2024-03-25T12:07:21;2.73;;;2.50;;
2656;SDS011;1338;48.176;11.792;2024-03-25T12:09:48;3.10;;;2.90;;
2656;SDS011;1338;48.176;11.792;2024-03-25T12:12:33;3.20;;;2.90;;
2656;SDS011;1338;48.176;11.792;2024-03-25T12:15:02;2.80;;;2.60;;
2656;SDS011;1338;48.176;11.792;2024-03-25T12:17:30;2.50;;;2.30;;
2656;SDS011;1338;48.176;11.792;2024-03-25T12:20:01;2.20;;;2.00;;
2656;SDS011;1338;48.176;11.792;2024-03-25T12:22:29;2.80;;;2.60;;
2656;SDS011;1338;48.176;11.792;2024-03-25T12:24:57;2.90;;;2.70;;
2656;SDS011;1338;48.176;11.792;2024-03-25T12:27:25;2.80;;;2.60;;
2656;SDS011;1338;48.176;11.792;2024-03-25T12:29:58;3.80;;;3.00;;
2656;SDS011;1338;48.176;11.792;2024-03-25T12:35:09;2.87;;;2.67;;
2656;SDS011;1338;48.176;11.792;2024-03-25T12:37:37;3.40;;;2.40;;
2656;SDS011;1338;48.176;11.792;2024-03-25T12:40:05;2.47;;;2.27;;
2656;SDS011;1338;48.176;11.792;2024-03-25T12:42:32;2.70;;;2.33;;
2656;SDS011;1338;48.176;11.792;2024-03-25T12:44:59;2.57;;;2.37;;
2656;SDS011;1338;48.176;11.792;2024-03-25T12:47:26;2.30;;;2.10;;
2656;SDS011;1338;48.176;11.792;2024-03-25T12:49:54;2.60;;;2.17;;
2656;SDS011;1338;48.176;11.792;2024-03-25T12:52:21;4.10;;;2.97;;
2656;SDS011;1338;48.176;11.792;2024-03-25T12:54:48;2.33;;;2.00;;
2656;SDS011;1338;48.176;11.792;2024-03-25T12:57:15;2.83;;;2.13;;
2656;SDS011;1338;48.176;11.792;2024-03-25T12:59:42;3.33;;;3.10;;
2656;SDS011;1338;48.176;11.792;2024-03-25T13:02:10;2.80;;;2.60;;
2656;SDS011;1338;48.176;11.792;2024-03-25T13:04:37;2.60;;;2.40;;
2656;SDS011;1338;48.176;11.792;2024-03-25T13:07:06;1.87;;;1.77;;
2656;SDS011;1338;48.176;11.792;2024-03-25T13:09:33;2.47;;;2.23;;
2656;SDS011;1338;48.176;11.792;2024-03-25T13:11:59;2.77;;;2.57;;
2656;SDS011;1338;48.176;11.792;2024-03-25T13:14:26;2.23;;;2.13;;
2656;SDS011;1338;48.176;11.792;2024-03-25T13:16:53;2.83;;;2.63;;
2656;SDS011;1338;48.176;11.792;2024-03-25T13:19:19;4.63;;;2.73;;
2656;SDS011;1338;48.176;11.792;2024-03-25T13:21:46;2.80;;;2.60;;
2656;SDS011;1338;48.176;11.792;2024-03-25T13:24:15;3.00;;;2.70;;
2656;SDS011;1338;48.176;11.792;2024-03-25T13:26:42;3.00;;;2.80;;
2656;SDS011;1338;48.176;11.792;2024-03-25T13:29:08;3.33;;;3.03;;
2656;SDS011;1338;48.176;11.792;2024-03-25T13:31:36;3.27;;;2.97;;
2656;SDS011;1338;48.176;11.792;2024-03-25T13:34:03;3.30;;;2.97;;
2656;SDS011;1338;48.176;11.792;2024-03-25T13:36:29;3.50;;;3.00;;
2656;SDS011;1338;48.176;11.792;2024-03-25T13:38:56;3.47;;;3.00;;
2656;SDS011;1338;48.176;11.792;2024-03-25T13:41:25;2.70;;;2.27;;
2656;SDS011;1338;48.176;11.792;2024-03-25T13:43:52;2.40;;;2.20;;
2656;SDS011;1338;48.176;11.792;2024-03-25T13:46:18;3.70;;;2.93;;
2656;SDS011;1338;48.176;11.792;2024-03-25T13:48:46;3.10;;;2.80;;
2656;SDS011;1338;48.176;11.792;2024-03-25T13:51:13;2.90;;;2.33;;
2656;SDS011;1338;48.176;11.792;2024-03-25T13:53:39;2.20;;;2.00;;
2656;SDS011;1338;48.176;11.792;2024-03-25T13:56:06;2.40;;;2.13;;
2656;SDS011;1338;48.176;11.792;2024-03-25T13:58:34;2.57;;;2.37;;
2656;SDS011;1338;48.176;11.792;2024-03-25T14:01:01;2.63;;;2.43;;
2656;SDS011;1338;48.176;11.792;2024-03-25T14:03:28;2.10;;;1.90;;
2656;SDS011;1338;48.176;11.792;2024-03-25T14:05:55;2.50;;;2.10;;
2656;SDS011;1338;48.176;11.792;2024-03-25T14:08:21;2.73;;;2.50;;
2656;SDS011;1338;48.176;11.792;2024-03-25T14:10:56;2.80;;;2.60;;
2656;SDS011;1338;48.176;11.792;2024-03-25T14:13:23;2.40;;;2.20;;
2656;SDS011;1338;48.176;11.792;2024-03-25T14:15:50;2.70;;;2.40;;
2656;SDS011;1338;48.176;11.792;2024-03-25T14:18:17;2.30;;;2.03;;
2656;SDS011;1338;48.176;11.792;2024-03-25T14:20:44;3.10;;;2.50;;
2656;SDS011;1338;48.176;11.792;2024-03-25T14:23:11;2.87;;;2.67;;
2656;SDS011;1338;48.176;11.792;2024-03-25T14:25:37;2.30;;;2.10;;
2656;SDS011;1338;48.176;11.792;2024-03-25T14:28:04;2.80;;;2.20;;
2656;SDS011;1338;48.176;11.792;2024-03-25T14:30:31;2.23;;;2.07;;
2656;SDS011;1338;48.176;11.792;2024-03-25T14:32:59;2.60;;;2.30;;
2656;SDS011;1338;48.176;11.792;2024-03-25T14:35:25;2.43;;;2.23;;
2656;SDS011;1338;48.176;11.792;2024-03-25T14:37:52;2.10;;;2.00;;
2656;SDS011;1338;48.176;11.792;2024-03-25T14:40:18;2.90;;;2.40;;
2656;SDS011;1338;48.176;11.792;2024-03-25T14:42:45;2.73;;;2.53;;
2656;SDS011;1338;48.176;11.792;2024-03-25T14:45:11;2.57;;;2.27;;
2656;SDS011;1338;48.176;11.792;2024-03-25T14:47:38;2.80;;;2.60;;
2656;SDS011;1338;48.176;11.792;2024-03-25T14:50:06;2.60;;;2.40;;
2656;SDS011;1338;48.176;11.792;2024-03-25T14:52:33;2.40;;;2.20;;
2656;SDS011;1338;48.176;11.792;2024-03-25T14:55:00;3.77;;;2.27;;
2656;SDS011;1338;48.176;11.792;2024-03-25T14:57:26;3.20;;;2.07;;
2656;SDS011;1338;48.176;11.792;2024-03-25T14:59:53;3.33;;;2.07;;
2656;SDS011;1338;48.176;11.792;2024-03-25T15:02:20;2.70;;;2.50;;
2656;SDS011;1338;48.176;11.792;2024-03-25T15:04:46;3.20;;;2.20;;